KLCH/LCH METAR and TAF weather

Enter ICAO airport designator
Station Type Date Time Source
KLCH METAR 2022/01/18 06:53 UTC NOAA

KLCH 180653Z AUTO 14004KT 10SM CLR 05/04 A3014 RMK AO2 SLP213 T00500039


Station Type Date Time Source
KLCH Decoded METAR 2022/01/18 06:53 UTC NOAA

LAKE CHARLES REGIONAL AIRPORT , LA, United States (KLCH) 30-12N 093-23W 3M
Jan 18, 2022 - 01:53 AM EST / 2022.01.18 0653 UTC
Wind: from the SE (140 degrees) at 5 MPH (4 KT):0
Visibility: 10 mile(s):0
Sky conditions: clear
Temperature: 41.0 F (5.0 C)
Dew Point: 39.0 F (3.9 C)
Relative Humidity: 92%
Pressure (altimeter): 30.14 in. Hg (1020 hPa)
ob: KLCH 180653Z AUTO 14004KT 10SM CLR 05/04 A3014 RMK AO2 SLP213 T00500039
cycle: 7

Station Type Date Time Source
KLCH TAF 2022/01/18 06:42 UTC NOAA

TAF KLCH 180539Z 1806/1906 VRB04KT P6SM SKC
FM180800 VRB04KT P6SM FEW250
FM181500 16008KT P6SM FEW250
FM181700 16012KT P6SM FEW250
FM190000 17010KT P6SM SCT250

Example: see airport list